createdAt,value
2018-04-11T00:00:28.613Z,0.00
2018-04-11T00:01:28.511Z,0.00
2018-04-11T00:02:28.462Z,0.00
2018-04-11T00:03:28.380Z,0.00
2018-04-11T00:04:28.303Z,0.00
2018-04-11T00:05:28.217Z,0.00
2018-04-11T00:06:28.151Z,0.00
2018-04-11T00:07:28.079Z,0.00
2018-04-11T00:08:28.017Z,0.00
2018-04-11T00:09:27.934Z,0.00
2018-04-11T00:10:27.893Z,0.00
2018-04-11T00:11:27.820Z,0.00
2018-04-11T00:12:27.711Z,0.00
2018-04-11T00:13:27.657Z,0.00
2018-04-11T00:14:27.564Z,0.00
2018-04-11T00:15:27.493Z,0.00
2018-04-11T00:16:27.433Z,0.00
2018-04-11T00:17:27.350Z,0.00
2018-04-11T00:18:27.276Z,0.00
2018-04-11T00:19:27.204Z,0.00
2018-04-11T00:20:27.130Z,0.00
2018-04-11T00:21:27.063Z,0.00
2018-04-11T00:22:27.031Z,0.00
2018-04-11T00:23:26.937Z,0.00
2018-04-11T00:24:26.838Z,0.00
2018-04-11T00:25:26.788Z,0.00
2018-04-11T00:26:26.709Z,0.00
2018-04-11T00:27:26.643Z,0.00
2018-04-11T00:28:26.570Z,0.00
2018-04-11T00:29:26.498Z,0.00
2018-04-11T00:30:26.425Z,0.00
2018-04-11T00:31:26.326Z,0.00
2018-04-11T00:32:26.274Z,0.00
2018-04-11T00:33:26.218Z,0.00
2018-04-11T00:34:26.144Z,0.00
2018-04-11T00:35:26.082Z,0.00
2018-04-11T00:36:25.962Z,0.00
2018-04-11T00:37:25.894Z,0.00
2018-04-11T00:38:25.826Z,0.00
2018-04-11T00:39:25.777Z,0.00
2018-04-11T00:40:25.680Z,0.00
2018-04-11T00:41:25.622Z,0.00
2018-04-11T00:42:25.537Z,0.00
2018-04-11T00:43:25.458Z,0.00
2018-04-11T00:44:25.411Z,0.00
2018-04-11T00:45:25.330Z,0.00
2018-04-11T00:46:25.297Z,0.00
2018-04-11T00:47:25.172Z,0.00
2018-04-11T00:48:25.116Z,0.00
2018-04-11T00:49:25.045Z,0.00
2018-04-11T00:50:24.958Z,0.00
2018-04-11T00:51:24.896Z,0.00
2018-04-11T00:52:24.813Z,0.00
2018-04-11T00:53:24.743Z,0.00
2018-04-11T00:54:24.687Z,0.00
2018-04-11T00:55:24.603Z,0.00
2018-04-11T00:56:24.515Z,0.00
2018-04-11T00:57:24.470Z,0.00
2018-04-11T00:58:24.377Z,0.00
2018-04-11T00:59:24.299Z,0.00
2018-04-11T01:00:24.250Z,0.00
2018-04-11T01:01:24.171Z,0.00
2018-04-11T01:02:24.087Z,0.00
2018-04-11T01:03:24.008Z,0.00
2018-04-11T01:04:23.944Z,0.00
2018-04-11T01:05:23.889Z,0.00
2018-04-11T01:06:23.791Z,0.00
2018-04-11T01:07:23.719Z,0.00
2018-04-11T01:08:23.660Z,0.00
2018-04-11T01:09:23.573Z,0.00
2018-04-11T01:10:23.496Z,0.00
2018-04-11T01:11:23.433Z,0.00
2018-04-11T01:12:23.368Z,0.00
2018-04-11T01:13:23.298Z,0.00
2018-04-11T01:14:23.206Z,0.00
2018-04-11T01:15:23.165Z,0.00
2018-04-11T01:16:23.060Z,0.00
2018-04-11T01:17:22.987Z,0.00
2018-04-11T01:18:22.937Z,0.00
2018-04-11T01:19:22.864Z,0.00
2018-04-11T01:20:22.760Z,0.00
2018-04-11T01:21:22.721Z,0.00
2018-04-11T01:22:22.633Z,0.00
2018-04-11T01:23:22.576Z,0.00
2018-04-11T01:24:22.495Z,0.00
2018-04-11T01:25:22.422Z,0.00
2018-04-11T01:26:22.347Z,0.00
2018-04-11T01:27:22.255Z,0.00
2018-04-11T01:28:22.210Z,0.00
2018-04-11T01:29:22.110Z,0.00
2018-04-11T01:30:22.045Z,0.00
2018-04-11T01:31:21.998Z,0.00
2018-04-11T01:32:21.890Z,0.00
2018-04-11T01:33:21.835Z,0.00
2018-04-11T01:34:21.758Z,0.00
2018-04-11T01:35:21.671Z,0.00
2018-04-11T01:36:21.612Z,0.00
2018-04-11T01:37:21.538Z,0.00
2018-04-11T01:38:21.463Z,0.00
2018-04-11T01:39:21.388Z,0.00
2018-04-11T01:40:21.318Z,0.00
2018-04-11T01:41:21.275Z,0.00
2018-04-11T01:42:21.199Z,0.00
2018-04-11T01:43:21.094Z,0.00
2018-04-11T01:44:21.028Z,0.00
2018-04-11T01:45:20.961Z,0.00
2018-04-11T01:46:20.862Z,0.00
2018-04-11T01:47:20.803Z,0.00
2018-04-11T01:48:20.731Z,0.00
2018-04-11T01:49:20.642Z,0.00
2018-04-11T01:50:20.592Z,0.00
2018-04-11T01:51:20.492Z,0.00
2018-04-11T01:52:20.420Z,0.00
2018-04-11T01:53:20.373Z,0.00
2018-04-11T01:54:20.284Z,0.00
2018-04-11T01:55:20.201Z,0.00
2018-04-11T01:56:20.120Z,0.00
2018-04-11T01:57:20.071Z,0.00
2018-04-11T01:58:19.995Z,0.00
2018-04-11T01:59:19.922Z,0.00
2018-04-11T02:00:19.832Z,0.00
2018-04-11T02:01:19.777Z,0.00
2018-04-11T02:02:19.703Z,0.00
2018-04-11T02:03:19.627Z,0.00
2018-04-11T02:04:19.536Z,0.00
2018-04-11T02:05:19.486Z,0.00
2018-04-11T02:06:19.416Z,0.00
2018-04-11T02:07:19.329Z,0.00
2018-04-11T02:08:19.256Z,0.00
2018-04-11T02:09:19.194Z,0.00
2018-04-11T02:10:19.101Z,0.00
2018-04-11T02:11:19.027Z,0.00
2018-04-11T02:12:18.979Z,0.00
2018-04-11T02:13:18.891Z,0.00
2018-04-11T02:14:18.820Z,0.00
2018-04-11T02:15:18.749Z,0.00
2018-04-11T02:16:18.680Z,0.00
2018-04-11T02:17:18.603Z,0.00
2018-04-11T02:18:18.523Z,0.00
2018-04-11T02:19:18.435Z,0.00
2018-04-11T02:20:18.363Z,0.00
2018-04-11T02:21:18.301Z,0.00
2018-04-11T02:22:18.234Z,0.00
2018-04-11T02:23:18.166Z,0.00
2018-04-11T02:24:18.095Z,0.00
2018-04-11T02:25:18.017Z,0.00
2018-04-11T02:26:17.929Z,0.00
2018-04-11T02:27:17.862Z,0.00
2018-04-11T02:28:17.799Z,0.00
2018-04-11T02:29:17.721Z,0.00
2018-04-11T02:30:17.671Z,0.00
2018-04-11T02:31:17.577Z,0.00
2018-04-11T02:32:17.502Z,0.00
2018-04-11T02:33:17.441Z,0.00
2018-04-11T02:34:17.375Z,0.00
2018-04-11T02:35:17.282Z,0.00
2018-04-11T02:36:17.212Z,0.00
2018-04-11T02:37:17.127Z,0.00
2018-04-11T02:38:17.056Z,0.00
2018-04-11T02:39:16.991Z,0.00
2018-04-11T02:40:16.902Z,0.00
2018-04-11T02:41:16.848Z,0.00
2018-04-11T02:42:16.762Z,0.00
2018-04-11T02:43:16.697Z,0.00
2018-04-11T02:44:16.627Z,0.00
2018-04-11T02:45:16.555Z,0.00
2018-04-11T02:46:16.464Z,0.00
2018-04-11T02:47:16.416Z,0.00
2018-04-11T02:48:16.339Z,0.00
2018-04-11T02:49:16.244Z,0.00
2018-04-11T02:50:16.171Z,0.00
2018-04-11T02:51:16.095Z,0.00
2018-04-11T02:52:16.032Z,0.00
2018-04-11T02:53:15.951Z,0.00
2018-04-11T02:54:15.895Z,0.00
2018-04-11T02:55:15.824Z,0.00
2018-04-11T02:56:15.745Z,0.00
2018-04-11T02:57:15.664Z,0.00
2018-04-11T02:58:15.631Z,0.00
2018-04-11T02:59:15.522Z,0.00
2018-04-11T03:00:15.433Z,0.00
2018-04-11T03:01:15.361Z,0.00
2018-04-11T03:02:15.290Z,0.00
2018-04-11T03:03:15.236Z,0.00
2018-04-11T03:04:15.154Z,0.00
2018-04-11T03:05:15.086Z,0.00
2018-04-11T03:06:15.003Z,0.00
2018-04-11T03:07:14.940Z,0.00
2018-04-11T03:08:14.864Z,0.00
2018-04-11T03:09:14.771Z,0.00
2018-04-11T03:10:14.721Z,0.00
2018-04-11T03:11:14.653Z,0.00
2018-04-11T03:12:14.547Z,0.00
2018-04-11T03:13:14.490Z,0.00
2018-04-11T03:14:14.435Z,0.00
2018-04-11T03:15:14.350Z,0.00
2018-04-11T03:16:14.262Z,0.00
2018-04-11T03:17:14.216Z,0.00
2018-04-11T03:18:14.116Z,0.00
2018-04-11T03:19:14.056Z,0.00
2018-04-11T03:20:13.968Z,0.00
2018-04-11T03:21:13.933Z,0.00
2018-04-11T03:22:13.842Z,0.00
2018-04-11T03:23:13.753Z,0.00
2018-04-11T03:24:13.685Z,0.00
2018-04-11T03:25:13.621Z,0.00
2018-04-11T03:26:13.544Z,0.00
2018-04-11T03:27:13.455Z,0.00
2018-04-11T03:28:13.377Z,0.00
2018-04-11T03:29:13.320Z,0.00
2018-04-11T03:30:13.234Z,0.00
2018-04-11T03:31:13.159Z,0.00
2018-04-11T03:32:13.083Z,0.00
2018-04-11T03:33:13.023Z,0.00
2018-04-11T03:34:12.940Z,0.00
2018-04-11T03:35:12.891Z,0.00
2018-04-11T03:36:12.788Z,0.00
2018-04-11T03:37:12.724Z,0.00
2018-04-11T03:38:12.659Z,0.00
2018-04-11T03:39:12.570Z,0.00
2018-04-11T03:40:12.509Z,0.00
2018-04-11T03:41:12.421Z,0.00
2018-04-11T03:42:12.348Z,0.00
2018-04-11T03:43:12.295Z,0.00
2018-04-11T03:44:12.201Z,0.00
2018-04-11T03:45:12.129Z,0.00
2018-04-11T03:46:12.076Z,0.00
2018-04-11T03:47:12.014Z,0.00
2018-04-11T03:48:11.906Z,0.00
2018-04-11T03:49:11.864Z,0.00
2018-04-11T03:50:11.774Z,0.00
2018-04-11T03:51:11.689Z,0.00
2018-04-11T03:52:11.643Z,0.00
2018-04-11T03:53:11.543Z,0.00
2018-04-11T03:54:11.466Z,0.00
2018-04-11T03:55:11.389Z,0.00
2018-04-11T03:56:11.314Z,0.00
2018-04-11T03:57:11.267Z,0.00
2018-04-11T03:58:11.185Z,0.00
2018-04-11T03:59:11.114Z,0.00
2018-04-11T04:00:11.026Z,0.00
2018-04-11T04:01:10.964Z,0.00
2018-04-11T04:02:10.889Z,0.00
2018-04-11T04:03:10.804Z,0.00
2018-04-11T04:04:10.741Z,0.00
2018-04-11T04:05:10.656Z,0.00
2018-04-11T04:06:10.593Z,0.00
2018-04-11T04:07:10.503Z,0.00
2018-04-11T04:08:10.426Z,0.00
2018-04-11T04:09:10.356Z,0.00
2018-04-11T04:10:10.290Z,0.00
2018-04-11T04:11:10.221Z,0.00
2018-04-11T04:12:10.151Z,0.00
2018-04-11T04:13:10.057Z,0.00
2018-04-11T04:14:09.988Z,0.00
2018-04-11T04:15:09.912Z,0.00
2018-04-11T04:16:09.857Z,0.00
2018-04-11T04:17:09.770Z,0.00
2018-04-11T04:18:09.707Z,0.00
2018-04-11T04:19:09.621Z,0.00
2018-04-11T04:20:09.559Z,0.00
2018-04-11T04:21:09.490Z,0.00
2018-04-11T04:22:09.409Z,0.00
2018-04-11T04:23:09.346Z,0.00
2018-04-11T04:24:09.277Z,0.00
2018-04-11T04:25:09.191Z,0.00
2018-04-11T04:26:09.106Z,0.00
2018-04-11T04:27:09.033Z,0.00
2018-04-11T04:28:08.956Z,0.00
2018-04-11T04:29:08.899Z,0.00
2018-04-11T04:30:08.821Z,0.00
2018-04-11T04:31:08.751Z,0.00
2018-04-11T04:32:08.681Z,0.00
2018-04-11T04:33:08.584Z,0.00
2018-04-11T04:34:08.509Z,0.00
2018-04-11T04:35:08.454Z,0.00
2018-04-11T04:36:08.378Z,0.00
2018-04-11T04:37:08.289Z,0.00
2018-04-11T04:38:08.216Z,0.00
2018-04-11T04:39:08.139Z,0.00
2018-04-11T04:40:08.080Z,0.00
2018-04-11T04:41:07.992Z,0.00
2018-04-11T04:42:07.919Z,0.00
2018-04-11T04:43:07.868Z,0.00
2018-04-11T04:44:07.791Z,0.00
2018-04-11T04:45:07.695Z,0.00
2018-04-11T04:46:07.633Z,0.00
2018-04-11T04:47:07.564Z,0.00
2018-04-11T04:48:07.478Z,0.00
2018-04-11T04:49:07.418Z,0.00
2018-04-11T04:50:07.344Z,0.00
2018-04-11T04:51:07.263Z,0.00
2018-04-11T04:52:07.192Z,0.00
2018-04-11T04:53:07.111Z,0.00
2018-04-11T04:54:07.027Z,0.00
2018-04-11T04:55:06.949Z,0.00
2018-04-11T04:56:06.899Z,0.00
2018-04-11T04:57:06.838Z,0.00
2018-04-11T04:58:06.746Z,0.00
2018-04-11T04:59:06.663Z,0.00
2018-04-11T05:00:06.606Z,0.00
2018-04-11T05:01:06.527Z,0.00
2018-04-11T05:02:06.436Z,0.00
2018-04-11T05:03:06.371Z,0.00
2018-04-11T05:04:06.287Z,0.00
2018-04-11T05:05:06.216Z,0.00
2018-04-11T05:06:06.139Z,0.00
2018-04-11T05:07:06.063Z,0.00
2018-04-11T05:08:05.989Z,0.00
2018-04-11T05:09:05.934Z,0.00
2018-04-11T05:10:05.847Z,0.00
2018-04-11T05:11:05.782Z,0.00
2018-04-11T05:12:05.712Z,0.00
2018-04-11T05:13:05.625Z,0.00
2018-04-11T05:14:05.547Z,0.00
2018-04-11T05:15:05.490Z,0.00
2018-04-11T05:16:05.398Z,0.00
2018-04-11T05:17:05.326Z,0.00
2018-04-11T05:18:05.272Z,0.00
2018-04-11T05:19:05.195Z,0.00
2018-04-11T05:20:05.098Z,0.00
2018-04-11T05:21:05.049Z,0.00
2018-04-11T05:22:04.949Z,0.00
2018-04-11T05:23:04.903Z,0.00
2018-04-11T05:24:04.827Z,0.00
2018-04-11T05:25:04.739Z,0.00
2018-04-11T05:26:04.661Z,0.00
2018-04-11T05:27:04.588Z,0.00
2018-04-11T05:28:04.523Z,0.00
2018-04-11T05:29:04.449Z,0.00
2018-04-11T05:30:04.371Z,0.00
2018-04-11T05:31:04.312Z,0.00
2018-04-11T05:32:04.228Z,0.00
2018-04-11T05:33:04.149Z,0.00
2018-04-11T05:34:04.064Z,0.00
2018-04-11T05:35:03.988Z,0.00
2018-04-11T05:36:03.914Z,0.00
2018-04-11T05:37:03.842Z,0.00
2018-04-11T05:38:03.766Z,0.00
2018-04-11T05:39:03.707Z,0.00
2018-04-11T05:40:03.634Z,0.00
2018-04-11T05:41:03.544Z,0.00
2018-04-11T05:42:03.498Z,0.00
2018-04-11T05:43:03.389Z,0.00
2018-04-11T05:44:03.322Z,0.00
2018-04-11T05:45:03.241Z,0.00
2018-04-11T05:46:03.186Z,0.00
2018-04-11T05:47:03.116Z,0.00
2018-04-11T05:48:03.097Z,0.00
2018-04-11T05:49:02.959Z,0.00
2018-04-11T05:50:02.890Z,0.00
2018-04-11T05:51:02.793Z,0.00
2018-04-11T05:52:02.725Z,0.00
2018-04-11T05:53:02.720Z,0.00
2018-04-11T05:54:02.586Z,0.00
2018-04-11T05:55:02.522Z,0.00
2018-04-11T05:56:02.421Z,0.00
2018-04-11T05:57:02.363Z,0.00
2018-04-11T05:58:02.282Z,0.00
2018-04-11T05:59:02.202Z,0.00
2018-04-11T06:00:02.141Z,5.63
2018-04-11T06:01:02.066Z,5.63
2018-04-11T06:02:01.986Z,5.63
2018-04-11T06:03:01.903Z,5.63
2018-04-11T06:04:01.824Z,5.63
2018-04-11T06:05:01.768Z,5.63
2018-04-11T06:06:01.723Z,5.63
2018-04-11T06:07:01.619Z,5.63
2018-04-11T06:08:01.531Z,5.63
2018-04-11T06:09:01.470Z,5.63
2018-04-11T06:10:01.398Z,5.63
2018-04-11T06:11:01.309Z,5.63
2018-04-11T06:12:01.242Z,5.63
2018-04-11T06:13:01.155Z,5.63
2018-04-11T06:14:01.100Z,5.63
2018-04-11T06:15:01.012Z,5.63
2018-04-11T06:16:00.942Z,5.63
2018-04-11T06:17:00.915Z,5.63
2018-04-11T06:18:00.795Z,5.63
2018-04-11T06:19:00.727Z,11.25
2018-04-11T06:20:00.658Z,11.25
2018-04-11T06:21:00.555Z,5.63
2018-04-11T06:22:00.479Z,11.25
2018-04-11T06:23:00.473Z,11.25
2018-04-11T06:24:00.346Z,11.25
2018-04-11T06:25:00.260Z,11.25
2018-04-11T06:26:00.179Z,11.25
2018-04-11T06:27:00.116Z,5.63
2018-04-11T06:28:00.047Z,11.25
2018-04-11T06:28:59.953Z,11.25
2018-04-11T06:29:59.879Z,11.25
2018-04-11T06:30:59.803Z,11.25
2018-04-11T06:31:59.739Z,11.25
2018-04-11T06:32:59.674Z,11.25
2018-04-11T06:33:59.581Z,16.88
2018-04-11T06:34:59.506Z,11.25
2018-04-11T06:35:59.445Z,11.25
2018-04-11T06:36:59.363Z,16.88
2018-04-11T06:37:59.311Z,11.25
2018-04-11T06:38:59.265Z,16.88
2018-04-11T06:39:59.137Z,16.88
2018-04-11T06:40:59.081Z,16.88
2018-04-11T06:41:58.997Z,16.88
2018-04-11T06:42:58.903Z,22.50
2018-04-11T06:43:58.855Z,22.50
2018-04-11T06:44:58.757Z,22.50
2018-04-11T06:45:58.709Z,16.88
2018-04-11T06:46:58.663Z,16.88
2018-04-11T06:47:58.551Z,16.88
2018-04-11T06:48:58.470Z,22.50
2018-04-11T06:49:58.398Z,28.13
2018-04-11T06:50:58.309Z,28.13
2018-04-11T06:51:58.235Z,33.75
2018-04-11T06:52:58.168Z,33.75
2018-04-11T06:53:58.104Z,33.75
2018-04-11T06:54:58.030Z,39.38
2018-04-11T06:55:57.954Z,33.75
2018-04-11T06:56:57.858Z,33.75
2018-04-11T06:57:57.803Z,33.75
2018-04-11T06:58:57.718Z,33.75
2018-04-11T06:59:57.632Z,39.38
2018-04-11T07:00:57.591Z,39.38
2018-04-11T07:01:57.488Z,33.75
2018-04-11T07:02:57.409Z,33.75
2018-04-11T07:03:57.350Z,33.75
2018-04-11T07:04:57.288Z,39.38
2018-04-11T07:05:57.200Z,33.75
2018-04-11T07:06:57.124Z,33.75
2018-04-11T07:07:57.061Z,33.75
2018-04-11T07:08:56.965Z,33.75
2018-04-11T07:09:56.915Z,33.75
2018-04-11T07:10:56.852Z,39.38
2018-04-11T07:11:56.753Z,33.75
2018-04-11T07:12:56.666Z,33.75
2018-04-11T07:13:56.610Z,33.75
2018-04-11T07:14:56.540Z,33.75
2018-04-11T07:15:56.447Z,39.38
2018-04-11T07:16:56.388Z,39.38
2018-04-11T07:17:56.342Z,39.38
2018-04-11T07:18:56.221Z,39.38
2018-04-11T07:19:56.185Z,39.38
2018-04-11T07:20:56.103Z,39.38
2018-04-11T07:21:55.990Z,39.38
2018-04-11T07:22:55.938Z,39.38
2018-04-11T07:23:55.846Z,39.38
2018-04-11T07:24:55.772Z,39.38
2018-04-11T07:25:55.745Z,39.38
2018-04-11T07:26:55.622Z,39.38
2018-04-11T07:27:55.550Z,39.38
2018-04-11T07:28:55.475Z,39.38
2018-04-11T07:29:55.413Z,39.38
2018-04-11T07:30:55.356Z,39.38
2018-04-11T07:31:55.265Z,39.38
2018-04-11T07:32:55.175Z,39.38
2018-04-11T07:33:55.100Z,33.75
2018-04-11T07:34:55.054Z,39.38
2018-04-11T07:35:54.971Z,33.75
2018-04-11T07:36:54.892Z,39.38
2018-04-11T07:37:54.808Z,33.75
2018-04-11T07:38:54.730Z,39.38
2018-04-11T07:39:54.684Z,39.38
2018-04-11T07:40:54.597Z,33.75
2018-04-11T07:41:54.512Z,33.75
2018-04-11T07:42:54.465Z,33.75
2018-04-11T07:43:54.370Z,33.75
2018-04-11T07:44:54.330Z,33.75
2018-04-11T07:45:54.210Z,28.13
2018-04-11T07:46:54.135Z,33.75
2018-04-11T07:47:54.094Z,33.75
2018-04-11T07:48:54.009Z,33.75
2018-04-11T07:49:53.918Z,33.75
2018-04-11T07:50:53.879Z,39.38
2018-04-11T07:51:53.781Z,39.38
2018-04-11T07:52:53.746Z,39.38
2018-04-11T07:53:53.620Z,45.00
2018-04-11T07:54:53.553Z,39.38
2018-04-11T07:55:53.497Z,45.00
2018-04-11T07:56:53.402Z,45.00
2018-04-11T07:57:53.329Z,45.00
2018-04-11T07:58:53.269Z,50.63
2018-04-11T07:59:53.201Z,50.63
2018-04-11T08:00:53.137Z,50.63
2018-04-11T08:01:53.034Z,50.63
2018-04-11T08:02:52.962Z,56.25
2018-04-11T08:03:52.892Z,56.25
2018-04-11T08:04:52.821Z,61.88
2018-04-11T08:05:52.730Z,56.25
2018-04-11T08:06:52.688Z,56.25
2018-04-11T08:07:52.586Z,56.25
2018-04-11T08:08:52.530Z,56.25
2018-04-11T08:09:52.458Z,56.25
2018-04-11T08:10:52.384Z,50.63
2018-04-11T08:11:52.311Z,45.00
2018-04-11T08:12:52.237Z,45.00
2018-04-11T08:13:52.149Z,39.38
2018-04-11T08:14:52.101Z,39.38
2018-04-11T08:15:52.002Z,39.38
2018-04-11T08:16:51.920Z,33.75
2018-04-11T08:17:51.867Z,39.38
2018-04-11T08:18:51.802Z,39.38
2018-04-11T08:19:51.735Z,39.38
2018-04-11T08:20:51.659Z,39.38
2018-04-11T08:21:51.566Z,39.38
2018-04-11T08:22:51.488Z,39.38
2018-04-11T08:23:51.435Z,45.00
2018-04-11T08:24:51.356Z,45.00
2018-04-11T08:25:51.267Z,45.00
2018-04-11T08:26:51.192Z,45.00
2018-04-11T08:27:51.122Z,45.00
2018-04-11T08:28:51.055Z,45.00
2018-04-11T08:29:50.998Z,50.63
2018-04-11T08:30:50.929Z,50.63
2018-04-11T08:31:50.824Z,56.25
2018-04-11T08:32:50.769Z,56.25
2018-04-11T08:33:50.682Z,56.25
2018-04-11T08:34:50.612Z,56.25
2018-04-11T08:35:50.573Z,56.25
2018-04-11T08:36:50.473Z,56.25
2018-04-11T08:37:50.399Z,50.63
2018-04-11T08:38:50.331Z,56.25
2018-04-11T08:39:50.259Z,45.00
2018-04-11T08:40:50.155Z,50.63
2018-04-11T08:41:50.101Z,67.50
2018-04-11T08:42:50.020Z,61.88
2018-04-11T08:43:49.968Z,73.13
2018-04-11T08:44:49.888Z,73.13
2018-04-11T08:45:49.812Z,78.75
2018-04-11T08:46:49.733Z,67.50
2018-04-11T08:47:49.661Z,67.50
2018-04-11T08:48:49.590Z,67.50
2018-04-11T08:49:49.500Z,73.13
2018-04-11T08:50:49.426Z,73.13
2018-04-11T08:51:49.366Z,78.75
2018-04-11T08:52:49.276Z,84.38
2018-04-11T08:53:49.204Z,95.63
2018-04-11T08:54:49.157Z,106.88
2018-04-11T08:55:49.084Z,106.88
2018-04-11T08:56:48.996Z,101.25
2018-04-11T08:57:48.940Z,101.25
2018-04-11T08:58:48.864Z,106.88
2018-04-11T08:59:48.770Z,101.25
2018-04-11T09:00:48.715Z,106.88
2018-04-11T09:01:48.624Z,106.88
2018-04-11T09:02:48.557Z,95.63
2018-04-11T09:03:48.489Z,84.38
2018-04-11T09:04:48.411Z,84.38
2018-04-11T09:05:48.337Z,84.38
2018-04-11T09:06:48.258Z,84.38
2018-04-11T09:07:48.191Z,84.38
2018-04-11T09:08:48.130Z,84.38
2018-04-11T09:09:48.026Z,78.75
2018-04-11T09:10:47.968Z,73.13
2018-04-11T09:11:47.880Z,73.13
2018-04-11T09:12:47.829Z,73.13
2018-04-11T09:13:47.738Z,78.75
2018-04-11T09:14:47.666Z,84.38
2018-04-11T09:15:47.625Z,90.00
2018-04-11T09:16:47.551Z,84.38
2018-04-11T09:17:47.454Z,84.38
2018-04-11T09:18:47.387Z,73.13
2018-04-11T09:19:47.324Z,73.13
2018-04-11T09:20:47.227Z,73.13
2018-04-11T09:21:47.203Z,67.50
2018-04-11T09:22:47.080Z,67.50
2018-04-11T09:23:47.016Z,73.13
2018-04-11T09:24:46.947Z,78.75
2018-04-11T09:25:46.891Z,84.38
2018-04-11T09:26:46.806Z,84.38
2018-04-11T09:27:46.724Z,84.38
2018-04-11T09:28:46.646Z,90.00
2018-04-11T09:29:46.568Z,90.00
2018-04-11T09:30:46.490Z,90.00
2018-04-11T09:31:46.438Z,95.63
2018-04-11T09:32:46.350Z,95.63
2018-04-11T09:33:46.272Z,95.63
2018-04-11T09:34:46.194Z,95.63
2018-04-11T09:35:46.135Z,95.63
2018-04-11T09:36:46.051Z,95.63
2018-04-11T09:37:45.976Z,90.00
2018-04-11T09:38:45.939Z,84.38
2018-04-11T09:39:45.825Z,78.75
2018-04-11T09:40:45.759Z,73.13
2018-04-11T09:41:45.713Z,67.50
2018-04-11T09:42:45.629Z,67.50
2018-04-11T09:43:45.549Z,67.50
2018-04-11T09:44:45.490Z,67.50
2018-04-11T09:45:45.388Z,67.50
2018-04-11T09:46:45.335Z,67.50
2018-04-11T09:47:45.272Z,73.13
2018-04-11T09:48:45.183Z,78.75
2018-04-11T09:49:45.102Z,78.75
2018-04-11T09:50:45.057Z,78.75
2018-04-11T09:51:44.964Z,78.75
2018-04-11T09:52:44.876Z,78.75
2018-04-11T09:53:44.806Z,84.38
2018-04-11T09:54:44.758Z,90.00
2018-04-11T09:55:44.682Z,90.00
2018-04-11T09:56:44.580Z,95.63
2018-04-11T09:57:44.508Z,95.63
2018-04-11T09:58:44.469Z,101.25
2018-04-11T09:59:44.389Z,101.25
2018-04-11T10:00:44.304Z,101.25
2018-04-11T10:01:44.218Z,95.63
2018-04-11T10:02:44.159Z,95.63
2018-04-11T10:03:44.088Z,95.63
2018-04-11T10:04:44.029Z,95.63
2018-04-11T10:05:43.934Z,95.63
2018-04-11T10:06:43.864Z,106.88
2018-04-11T10:07:43.784Z,106.88
2018-04-11T10:08:43.700Z,106.88
2018-04-11T10:09:43.653Z,101.25
2018-04-11T10:10:43.576Z,101.25
2018-04-11T10:11:43.485Z,106.88
2018-04-11T10:12:43.430Z,118.13
2018-04-11T10:13:43.346Z,129.38
2018-04-11T10:14:43.280Z,140.63
2018-04-11T10:15:43.195Z,146.25
2018-04-11T10:16:43.121Z,146.25
2018-04-11T10:17:43.048Z,151.88
2018-04-11T10:18:42.977Z,151.88
2018-04-11T10:19:42.915Z,151.88
2018-04-11T10:20:42.854Z,151.88
2018-04-11T10:21:42.757Z,146.25
2018-04-11T10:22:42.700Z,151.88
2018-04-11T10:23:42.634Z,157.50
2018-04-11T10:24:42.539Z,151.88
2018-04-11T10:25:42.478Z,157.50
2018-04-11T10:26:42.402Z,168.75
2018-04-11T10:27:42.323Z,163.13
2018-04-11T10:28:42.267Z,163.13
2018-04-11T10:29:42.189Z,163.13
2018-04-11T10:30:42.109Z,151.88
2018-04-11T10:31:42.050Z,146.25
2018-04-11T10:32:41.990Z,118.13
2018-04-11T10:33:41.886Z,140.63
2018-04-11T10:34:41.840Z,140.63
2018-04-11T10:35:41.731Z,106.88
2018-04-11T10:36:41.664Z,123.75
2018-04-11T10:37:41.613Z,118.13
2018-04-11T10:38:41.534Z,112.50
2018-04-11T10:39:41.451Z,84.38
2018-04-11T10:40:41.376Z,84.38
2018-04-11T10:41:41.320Z,84.38
2018-04-11T10:42:41.256Z,78.75
2018-04-11T10:43:41.162Z,90.00
2018-04-11T10:44:41.082Z,101.25
2018-04-11T10:45:41.028Z,84.38
2018-04-11T10:46:40.951Z,90.00
2018-04-11T10:47:40.862Z,95.63
2018-04-11T10:48:40.818Z,101.25
2018-04-11T10:49:40.735Z,106.88
2018-04-11T10:50:40.650Z,112.50
2018-04-11T10:51:40.602Z,112.50
2018-04-11T10:52:40.510Z,118.13
2018-04-11T10:53:40.442Z,118.13
2018-04-11T10:54:40.362Z,112.50
2018-04-11T10:55:40.280Z,112.50
2018-04-11T10:56:40.241Z,118.13
2018-04-11T10:57:40.172Z,118.13
2018-04-11T10:58:40.068Z,118.13
2018-04-11T10:59:40.006Z,112.50
2018-04-11T11:00:39.926Z,112.50
2018-04-11T11:01:39.858Z,112.50
2018-04-11T11:02:39.784Z,118.13
2018-04-11T11:03:39.706Z,118.13
2018-04-11T11:04:39.637Z,123.75
2018-04-11T11:05:39.582Z,129.38
2018-04-11T11:06:39.492Z,135.00
2018-04-11T11:07:39.418Z,135.00
2018-04-11T11:08:39.345Z,135.00
2018-04-11T11:09:39.314Z,135.00
2018-04-11T11:10:39.197Z,135.00
2018-04-11T11:11:39.146Z,135.00
2018-04-11T11:12:39.054Z,140.63
2018-04-11T11:13:38.976Z,146.25
2018-04-11T11:14:38.931Z,146.25
2018-04-11T11:15:38.836Z,151.88
2018-04-11T11:16:38.768Z,151.88
2018-04-11T11:17:38.711Z,157.50
2018-04-11T11:18:38.655Z,163.13
2018-04-11T11:19:38.565Z,163.13
2018-04-11T11:20:38.503Z,163.13
2018-04-11T11:21:38.404Z,163.13
2018-04-11T11:22:38.331Z,157.50
2018-04-11T11:23:38.264Z,157.50
2018-04-11T11:24:38.197Z,151.88
2018-04-11T11:25:38.118Z,151.88
2018-04-11T11:26:38.057Z,151.88
2018-04-11T11:27:37.987Z,151.88
2018-04-11T11:28:37.901Z,146.25
2018-04-11T11:29:37.844Z,146.25
2018-04-11T11:30:37.757Z,146.25
2018-04-11T11:31:37.683Z,151.88
2018-04-11T11:32:37.612Z,151.88
2018-04-11T11:33:37.560Z,151.88
2018-04-11T11:34:37.487Z,151.88
2018-04-11T11:35:37.407Z,151.88
2018-04-11T11:36:37.361Z,151.88
2018-04-11T11:37:37.244Z,157.50
2018-04-11T11:38:37.174Z,157.50
2018-04-11T11:39:37.101Z,157.50
2018-04-11T11:40:37.034Z,151.88
2018-04-11T11:41:36.963Z,151.88
2018-04-11T11:42:36.906Z,157.50
2018-04-11T11:43:36.822Z,163.13
2018-04-11T11:44:36.746Z,163.13
2018-04-11T11:45:36.686Z,168.75
2018-04-11T11:46:36.601Z,168.75
2018-04-11T11:47:36.544Z,174.38
2018-04-11T11:48:36.464Z,174.38
2018-04-11T11:49:36.404Z,174.38
2018-04-11T11:50:36.307Z,174.38
2018-04-11T11:51:36.239Z,174.38
2018-04-11T11:52:36.166Z,180.00
2018-04-11T11:53:36.138Z,180.00
2018-04-11T11:54:36.035Z,180.00
2018-04-11T11:55:35.966Z,180.00
2018-04-11T11:56:35.874Z,185.63
2018-04-11T11:57:35.836Z,185.63
2018-04-11T11:58:35.746Z,191.25
2018-04-11T11:59:35.657Z,191.25
2018-04-11T12:00:35.616Z,191.25
2018-04-11T12:01:35.516Z,191.25
2018-04-11T12:02:35.459Z,196.88
2018-04-11T12:03:35.373Z,202.50
2018-04-11T12:04:35.312Z,208.13
2018-04-11T12:05:35.246Z,213.75
2018-04-11T12:06:35.176Z,219.38
2018-04-11T12:07:35.086Z,225.00
2018-04-11T12:08:35.039Z,230.63
2018-04-11T12:09:34.950Z,230.63
2018-04-11T12:10:34.870Z,236.25
2018-04-11T12:11:34.798Z,230.63
2018-04-11T12:12:34.740Z,230.63
2018-04-11T12:13:34.658Z,225.00
2018-04-11T12:14:34.589Z,219.38
2018-04-11T12:15:34.518Z,208.13
2018-04-11T12:16:34.461Z,208.13
2018-04-11T12:17:34.372Z,208.13
2018-04-11T12:18:34.312Z,202.50
2018-04-11T12:19:34.244Z,202.50
2018-04-11T12:20:34.168Z,196.88
2018-04-11T12:21:34.110Z,191.25
2018-04-11T12:22:34.010Z,180.00
2018-04-11T12:23:33.958Z,168.75
2018-04-11T12:24:33.887Z,163.13
2018-04-11T12:25:33.817Z,157.50
2018-04-11T12:26:33.728Z,151.88
2018-04-11T12:27:33.711Z,146.25
2018-04-11T12:28:33.589Z,151.88
2018-04-11T12:29:33.541Z,168.75
2018-04-11T12:30:33.444Z,180.00
2018-04-11T12:31:33.393Z,185.63
2018-04-11T12:32:33.298Z,191.25
2018-04-11T12:33:33.246Z,196.88
2018-04-11T12:34:33.171Z,191.25
2018-04-11T12:35:33.117Z,174.38
2018-04-11T12:36:33.032Z,163.13
2018-04-11T12:37:32.954Z,151.88
2018-04-11T12:38:32.882Z,151.88
2018-04-11T12:39:32.806Z,146.25
2018-04-11T12:40:32.738Z,146.25
2018-04-11T12:41:32.677Z,151.88
2018-04-11T12:42:32.608Z,151.88
2018-04-11T12:43:32.523Z,163.13
2018-04-11T12:44:32.454Z,157.50
2018-04-11T12:45:32.407Z,151.88
2018-04-11T12:46:32.311Z,151.88
2018-04-11T12:47:32.234Z,151.88
2018-04-11T12:48:32.188Z,146.25
2018-04-11T12:49:32.116Z,140.63
2018-04-11T12:50:32.044Z,135.00
2018-04-11T12:51:31.974Z,135.00
2018-04-11T12:52:31.897Z,135.00
2018-04-11T12:53:31.830Z,146.25
2018-04-11T12:54:31.757Z,151.88
2018-04-11T12:55:31.671Z,157.50
2018-04-11T12:56:31.628Z,163.13
2018-04-11T12:57:31.525Z,163.13
2018-04-11T12:58:31.501Z,163.13